createdAt,value
2019-04-01T00:04:22.045Z,57.05
2019-04-01T00:07:05.954Z,63.35
2019-04-01T00:09:57.342Z,57.03
2019-04-01T00:12:42.537Z,57.78
2019-04-01T00:15:33.898Z,54.33
2019-04-01T00:18:17.623Z,55.38
2019-04-01T00:20:49.653Z,59.23
2019-04-01T00:23:33.095Z,56.85
2019-04-01T00:26:24.557Z,56.10
2019-04-01T00:29:11.733Z,57.13
2019-04-01T00:32:03.020Z,59.27
2019-04-01T00:34:47.320Z,57.38
2019-04-01T00:37:38.627Z,57.43
2019-04-01T00:40:20.868Z,61.10
2019-04-01T00:43:31.054Z,56.92
2019-04-01T00:46:16.794Z,61.55
2019-04-01T00:49:07.920Z,63.60
2019-04-01T00:51:51.440Z,62.30
2019-04-01T00:54:42.668Z,68.60
2019-04-01T00:57:26.918Z,59.10
2019-04-01T01:00:11.034Z,54.58
2019-04-01T01:02:55.391Z,56.42
2019-04-01T01:05:46.712Z,67.45
2019-04-01T01:08:30.332Z,63.25
2019-04-01T01:11:21.453Z,56.10
2019-04-01T01:14:05.430Z,62.95
2019-04-01T01:16:56.603Z,64.20
2019-04-01T01:19:40.391Z,59.10
2019-04-01T01:22:31.578Z,55.30
2019-04-01T01:25:03.475Z,54.35
2019-04-01T01:27:54.614Z,56.25
2019-04-01T01:30:26.628Z,60.63
2019-04-01T01:33:10.652Z,57.98
2019-04-01T01:36:01.749Z,69.17
2019-04-01T01:38:45.821Z,61.70
2019-04-01T01:41:36.917Z,59.05
2019-04-01T01:44:22.801Z,59.13
2019-04-01T01:47:06.891Z,59.98
2019-04-01T01:49:58.103Z,60.98
2019-04-01T01:52:42.139Z,60.85
2019-04-01T01:55:32.765Z,50.33
2019-04-01T01:58:16.292Z,60.73
2019-04-01T02:01:07.396Z,52.55
2019-04-01T02:03:50.828Z,57.38
2019-04-01T02:06:41.953Z,60.23
2019-04-01T02:09:26.203Z,54.75
2019-04-01T02:12:17.197Z,58.85
2019-04-01T02:14:59.585Z,51.20
2019-04-01T02:17:50.733Z,52.78
2019-04-01T02:20:35.612Z,62.08
2019-04-01T02:23:26.734Z,60.80
2019-04-01T02:26:10.886Z,55.45
2019-04-01T02:29:01.991Z,54.75
2019-04-01T02:31:33.992Z,60.55
2019-04-01T02:34:06.094Z,60.10
2019-04-01T02:36:38.035Z,59.25
2019-04-01T02:39:10.881Z,52.65
2019-04-01T02:41:43.366Z,56.63
2019-04-01T02:44:15.751Z,55.78
2019-04-01T02:46:47.997Z,64.00
2019-04-01T02:49:20.202Z,54.05
2019-04-01T02:51:52.071Z,61.35
2019-04-01T02:54:24.159Z,58.40
2019-04-01T02:56:56.119Z,61.90
2019-04-01T02:59:28.121Z,58.55
2019-04-01T03:02:00.233Z,60.60
2019-04-01T03:04:32.320Z,72.58
2019-04-01T03:07:04.426Z,61.33
2019-04-01T03:09:36.429Z,66.15
2019-04-01T03:12:08.458Z,57.30
2019-04-01T03:14:40.431Z,60.78
2019-04-01T03:17:12.690Z,56.75
2019-04-01T03:19:44.910Z,55.48
2019-04-01T03:22:17.168Z,61.55
2019-04-01T03:24:49.195Z,57.67
2019-04-01T03:27:21.300Z,61.95
2019-04-01T03:29:53.345Z,62.17
2019-04-01T03:32:25.225Z,58.40
2019-04-01T03:34:57.205Z,57.93
2019-04-01T03:37:29.204Z,54.88
2019-04-01T03:40:01.493Z,56.55
2019-04-01T03:42:33.339Z,65.12
2019-04-01T03:45:05.769Z,61.18
2019-04-01T03:47:37.774Z,62.73
2019-04-01T03:50:09.860Z,64.95
2019-04-01T03:52:42.097Z,65.95
2019-04-01T03:55:14.067Z,70.10
2019-04-01T03:57:46.190Z,55.63
2019-04-01T04:00:18.197Z,66.33
2019-04-01T04:02:50.767Z,63.02
2019-04-01T04:05:22.904Z,70.08
2019-04-01T04:07:54.989Z,57.78
2019-04-01T04:10:26.888Z,63.90
2019-04-01T04:12:59.802Z,66.80
2019-04-01T04:15:31.727Z,72.58
2019-04-01T04:18:03.599Z,63.10
2019-04-01T04:20:35.462Z,64.37
2019-04-01T04:23:07.532Z,75.80
2019-04-01T04:25:39.632Z,66.25
2019-04-01T04:28:11.644Z,72.50
2019-04-01T04:30:43.713Z,61.28
2019-04-01T04:33:15.679Z,71.55
2019-04-01T04:35:47.712Z,65.22
2019-04-01T04:38:19.812Z,70.00
2019-04-01T04:40:51.814Z,63.13
2019-04-01T04:43:23.934Z,68.47
2019-04-01T04:45:55.869Z,70.00
2019-04-01T04:48:27.691Z,74.70
2019-04-01T04:50:59.620Z,64.25
2019-04-01T04:53:31.646Z,69.32
2019-04-01T04:56:04.756Z,70.52
2019-04-01T04:58:36.850Z,65.62
2019-04-01T05:01:09.024Z,62.10
2019-04-01T05:03:42.401Z,64.47
2019-04-01T05:06:14.740Z,63.08
2019-04-01T05:08:46.753Z,72.47
2019-04-01T05:11:18.852Z,62.23
2019-04-01T05:13:50.983Z,64.67
2019-04-01T05:16:22.817Z,64.03
2019-04-01T05:18:54.847Z,55.17
2019-04-01T05:21:27.240Z,62.55
2019-04-01T05:23:59.531Z,60.15
2019-04-01T05:26:32.817Z,70.20
2019-04-01T05:29:05.359Z,64.67
2019-04-01T05:31:39.422Z,55.33
2019-04-01T05:34:13.993Z,70.47
2019-04-01T05:36:46.671Z,68.92
2019-04-01T05:39:18.847Z,73.05
2019-04-01T05:41:51.304Z,67.58
2019-04-01T05:44:23.760Z,67.35
2019-04-01T05:46:56.014Z,67.70
2019-04-01T05:49:28.742Z,66.77
2019-04-01T05:52:00.798Z,64.82
2019-04-01T05:54:32.850Z,63.40
2019-04-01T05:57:04.753Z,68.67
2019-04-01T05:59:36.813Z,67.78
2019-04-01T06:02:08.970Z,76.50
2019-04-01T06:04:41.103Z,86.42
2019-04-01T06:07:13.239Z,63.05
2019-04-01T06:09:45.484Z,66.92
2019-04-01T06:12:17.437Z,62.60
2019-04-01T06:14:49.410Z,63.68
2019-04-01T06:17:21.468Z,58.80
2019-04-01T06:19:53.692Z,53.48
2019-04-01T06:22:25.756Z,61.65
2019-04-01T06:24:57.941Z,65.32
2019-04-01T06:27:30.685Z,58.68
2019-04-01T06:30:03.279Z,55.17
2019-04-01T06:32:35.583Z,67.03
2019-04-01T06:35:07.962Z,64.05
2019-04-01T06:37:39.981Z,70.05
2019-04-01T06:40:12.081Z,62.43
2019-04-01T06:42:46.852Z,62.88
2019-04-01T06:45:18.890Z,65.45
2019-04-01T06:47:51.203Z,56.83
2019-04-01T06:50:23.271Z,63.55
2019-04-01T06:52:55.430Z,72.58
2019-04-01T06:55:27.368Z,56.68
2019-04-01T06:57:59.368Z,62.15
2019-04-01T07:00:31.798Z,58.80
2019-04-01T07:03:04.090Z,64.50
2019-04-01T07:05:36.971Z,60.80
2019-04-01T07:08:09.051Z,61.55
2019-04-01T07:10:41.184Z,66.90
2019-04-01T07:13:13.281Z,66.80
2019-04-01T07:15:45.472Z,63.17
2019-04-01T07:18:17.736Z,63.52
2019-04-01T07:20:49.714Z,61.83
2019-04-01T07:23:21.679Z,65.62
2019-04-01T07:25:53.889Z,60.33
2019-04-01T07:28:25.899Z,61.05
2019-04-01T07:30:58.251Z,65.72
2019-04-01T07:33:30.354Z,57.95
2019-04-01T07:36:02.414Z,53.80
2019-04-01T07:38:34.768Z,65.45
2019-04-01T07:41:06.821Z,73.83
2019-04-01T07:43:39.114Z,58.55
2019-04-01T07:46:11.050Z,59.90
2019-04-01T07:48:43.258Z,64.03
2019-04-01T07:51:15.624Z,59.48
2019-04-01T07:53:48.939Z,58.98
2019-04-01T07:56:21.157Z,60.25
2019-04-01T07:58:53.084Z,59.27
2019-04-01T08:01:25.006Z,60.65
2019-04-01T08:03:57.930Z,61.28
2019-04-01T08:06:30.177Z,63.68
2019-04-01T08:09:02.314Z,62.15
2019-04-01T08:11:35.238Z,57.90
2019-04-01T08:14:07.382Z,64.53
2019-04-01T08:16:39.464Z,59.05
2019-04-01T08:19:11.458Z,58.83
2019-04-01T08:21:44.753Z,62.20
2019-04-01T08:24:16.823Z,59.15
2019-04-01T08:26:48.829Z,59.73
2019-04-01T08:29:30.168Z,65.10
2019-04-01T08:31:54.598Z,55.92
2019-04-01T08:34:27.008Z,61.73
2019-04-01T08:36:59.160Z,55.73
2019-04-01T08:39:31.218Z,63.80
2019-04-01T08:42:03.954Z,65.15
2019-04-01T08:44:35.997Z,64.05
2019-04-01T08:47:08.063Z,64.55
2019-04-01T08:49:40.155Z,70.17
2019-04-01T08:52:12.307Z,60.67
2019-04-01T08:54:44.275Z,67.32
2019-04-01T08:57:16.836Z,55.03
2019-04-01T08:59:49.148Z,62.38
2019-04-01T09:02:21.107Z,60.10
2019-04-01T09:04:53.204Z,59.38
2019-04-01T09:07:25.213Z,55.00
2019-04-01T09:09:58.552Z,73.57
2019-04-01T09:12:32.211Z,57.38
2019-04-01T09:15:05.454Z,57.70
2019-04-01T09:17:40.193Z,58.58
2019-04-01T09:20:11.737Z,61.08
2019-04-01T09:22:43.715Z,60.48
2019-04-01T09:25:15.804Z,52.70
2019-04-01T09:27:47.917Z,54.65
2019-04-01T09:30:20.290Z,52.35
2019-04-01T09:32:52.381Z,59.58
2019-04-01T09:35:24.265Z,55.00
2019-04-01T09:37:56.277Z,61.37
2019-04-01T09:40:28.172Z,58.13
2019-04-01T09:43:00.067Z,59.55
2019-04-01T09:45:32.114Z,55.55
2019-04-01T09:48:04.108Z,57.08
2019-04-01T09:50:36.073Z,59.10
2019-04-01T09:53:08.173Z,54.98
2019-04-01T09:55:40.276Z,57.13
2019-04-01T09:58:12.125Z,54.58
2019-04-01T10:00:46.157Z,51.70
2019-04-01T10:03:18.292Z,59.38
2019-04-01T10:05:50.157Z,52.70
2019-04-01T10:08:23.277Z,50.10
2019-04-01T10:10:55.279Z,54.38
2019-04-01T10:13:27.279Z,57.08
2019-04-01T10:15:59.627Z,52.85
2019-04-01T10:18:31.508Z,47.95
2019-04-01T10:21:03.588Z,53.45
2019-04-01T10:23:35.616Z,53.90
2019-04-01T10:26:07.585Z,50.65
2019-04-01T10:28:39.596Z,53.38
2019-04-01T10:31:13.088Z,52.35
2019-04-01T10:33:45.108Z,44.90
2019-04-01T10:36:17.078Z,49.53
2019-04-01T10:38:48.980Z,50.12
2019-04-01T10:41:20.975Z,45.12
2019-04-01T10:43:52.865Z,47.20
2019-04-01T10:46:24.832Z,47.15
2019-04-01T10:48:56.954Z,48.28
2019-04-01T10:51:28.970Z,43.30
2019-04-01T10:54:00.952Z,41.83
2019-04-01T10:56:35.848Z,42.88
2019-04-01T10:59:06.725Z,37.70
2019-04-01T11:01:38.790Z,41.48
2019-04-01T11:04:10.732Z,43.87
2019-04-01T11:06:42.738Z,42.45
2019-04-01T11:09:15.005Z,40.45
2019-04-01T11:11:47.068Z,45.12
2019-04-01T11:14:18.933Z,44.60
2019-04-01T11:16:51.132Z,42.80
2019-04-01T11:19:23.182Z,41.42
2019-04-01T11:21:55.184Z,45.78
2019-04-01T11:24:27.223Z,38.85
2019-04-01T11:26:59.395Z,41.80
2019-04-01T11:29:31.348Z,39.92
2019-04-01T11:32:03.414Z,44.95
2019-04-01T11:34:35.519Z,43.20
2019-04-01T11:37:07.526Z,43.60
2019-04-01T11:39:39.525Z,41.20
2019-04-01T11:42:11.552Z,37.90
2019-04-01T11:44:43.572Z,39.73
2019-04-01T11:47:15.531Z,41.37
2019-04-01T11:49:47.538Z,38.48
2019-04-01T11:52:19.840Z,40.43
2019-04-01T11:54:52.006Z,40.63
2019-04-01T11:57:23.977Z,39.75
2019-04-01T11:59:56.017Z,40.05
2019-04-01T12:02:28.080Z,37.10
2019-04-01T12:05:00.068Z,38.60
2019-04-01T12:07:32.264Z,38.78
2019-04-01T12:10:07.373Z,37.73
2019-04-01T12:12:38.511Z,39.58
2019-04-01T12:15:12.362Z,38.55
2019-04-01T12:17:45.035Z,34.23
2019-04-01T12:20:17.081Z,36.45
2019-04-01T12:22:48.939Z,39.23
2019-04-01T12:25:21.101Z,39.95
2019-04-01T12:27:52.991Z,38.53
2019-04-01T12:30:24.966Z,33.75
2019-04-01T12:32:56.939Z,40.92
2019-04-01T12:35:28.849Z,36.13
2019-04-01T12:38:00.985Z,33.85
2019-04-01T12:40:33.264Z,30.92
2019-04-01T12:43:05.308Z,39.50
2019-04-01T12:45:37.355Z,34.10
2019-04-01T12:48:09.376Z,30.80
2019-04-01T12:50:41.441Z,35.15
2019-04-01T12:53:13.484Z,28.47
2019-04-01T12:55:45.344Z,31.33
2019-04-01T12:58:17.880Z,30.20
2019-04-01T13:00:51.658Z,29.70
2019-04-01T13:03:23.791Z,30.43
2019-04-01T13:05:55.782Z,36.28
2019-04-01T13:08:27.871Z,33.58
2019-04-01T13:10:59.945Z,28.70
2019-04-01T13:13:31.946Z,32.63
2019-04-01T13:16:04.064Z,31.37
2019-04-01T13:18:38.180Z,29.92
2019-04-01T13:21:11.006Z,24.47
2019-04-01T13:23:43.126Z,26.75
2019-04-01T13:26:15.183Z,25.60
2019-04-01T13:28:47.016Z,28.30
2019-04-01T13:31:19.070Z,24.45
2019-04-01T13:33:50.975Z,25.68
2019-04-01T13:36:22.914Z,28.35
2019-04-01T13:38:54.979Z,25.65
2019-04-01T13:41:41.740Z,26.77
2019-04-01T13:44:02.009Z,27.27
2019-04-01T13:46:34.053Z,27.32
2019-04-01T13:49:06.054Z,28.95
2019-04-01T13:51:38.093Z,22.50
2019-04-01T13:54:11.466Z,30.60
2019-04-01T13:56:43.820Z,25.20
2019-04-01T13:59:17.577Z,30.60
2019-04-01T14:01:49.792Z,26.87
2019-04-01T14:04:21.783Z,28.05
2019-04-01T14:06:53.978Z,26.40
2019-04-01T14:09:26.006Z,27.52
2019-04-01T14:11:57.899Z,24.07
2019-04-01T14:14:29.770Z,22.22
2019-04-01T14:17:01.766Z,22.42
2019-04-01T14:19:33.665Z,24.75
2019-04-01T14:22:05.795Z,26.52
2019-04-01T14:24:37.678Z,25.20
2019-04-01T14:27:10.129Z,28.25
2019-04-01T14:29:42.343Z,24.80
2019-04-01T14:32:18.129Z,25.65
2019-04-01T14:34:50.515Z,24.52
2019-04-01T14:37:26.193Z,25.25
2019-04-01T14:39:57.018Z,25.15
2019-04-01T14:42:29.086Z,22.55
2019-04-01T14:45:02.297Z,26.55
2019-04-01T14:47:34.438Z,21.57
2019-04-01T14:50:08.171Z,24.90
2019-04-01T14:52:41.408Z,25.77
2019-04-01T14:55:14.943Z,25.80
2019-04-01T14:57:47.043Z,23.45
2019-04-01T15:00:23.612Z,30.08
2019-04-01T15:02:55.977Z,22.58
2019-04-01T15:05:27.991Z,25.85
2019-04-01T15:08:00.239Z,18.90
2019-04-01T15:10:32.276Z,23.05
2019-04-01T15:13:06.095Z,25.55
2019-04-01T15:15:38.134Z,21.05
2019-04-01T15:18:10.136Z,22.93
2019-04-01T15:20:42.054Z,26.35
2019-04-01T15:23:14.020Z,24.25
2019-04-01T15:25:46.215Z,23.25
2019-04-01T15:28:18.156Z,23.85
2019-04-01T15:30:50.261Z,24.43
2019-04-01T15:33:22.118Z,25.23
2019-04-01T15:35:54.171Z,22.48
2019-04-01T15:38:26.123Z,23.73
2019-04-01T15:40:58.441Z,21.42
2019-04-01T15:43:30.977Z,21.42
2019-04-01T15:46:04.203Z,22.50
2019-04-01T15:48:36.755Z,24.45
2019-04-01T15:51:09.046Z,20.30
2019-04-01T15:53:41.376Z,21.82
2019-04-01T15:56:13.366Z,26.10
2019-04-01T15:58:45.452Z,20.77
2019-04-01T16:01:18.534Z,23.85
2019-04-01T16:03:50.855Z,22.95
2019-04-01T16:06:27.008Z,23.50
2019-04-01T16:08:58.839Z,23.47
2019-04-01T16:11:30.856Z,24.43
2019-04-01T16:14:02.901Z,24.77
2019-04-01T16:16:36.074Z,22.52
2019-04-01T16:19:08.765Z,24.02
2019-04-01T16:21:40.940Z,25.70
2019-04-01T16:24:12.899Z,24.77
2019-04-01T16:26:44.941Z,25.75
2019-04-01T16:29:17.078Z,22.77
2019-04-01T16:31:49.084Z,30.88
2019-04-01T16:34:21.270Z,28.00
2019-04-01T16:36:53.595Z,24.57
2019-04-01T16:39:26.056Z,23.40
2019-04-01T16:41:58.205Z,25.85
2019-04-01T16:44:30.291Z,23.05
2019-04-01T16:47:03.371Z,24.52
2019-04-01T16:49:36.253Z,23.95
2019-04-01T16:52:09.446Z,22.85
2019-04-01T16:54:41.409Z,23.62
2019-04-01T16:57:13.479Z,24.60
2019-04-01T16:59:45.529Z,28.95
2019-04-01T17:02:18.561Z,25.30
2019-04-01T17:04:50.828Z,26.68
2019-04-01T17:07:22.832Z,26.85
2019-04-01T17:09:58.044Z,24.65
2019-04-01T17:12:28.572Z,22.65
2019-04-01T17:15:03.320Z,30.55
2019-04-01T17:17:35.543Z,23.75
2019-04-01T17:20:08.419Z,26.70
2019-04-01T17:22:40.640Z,24.05
2019-04-01T17:25:12.833Z,24.95
2019-04-01T17:27:44.991Z,23.18
2019-04-01T17:30:17.203Z,26.15
2019-04-01T17:32:49.059Z,25.82
2019-04-01T17:35:21.026Z,29.32
2019-04-01T17:37:53.077Z,23.22
2019-04-01T17:40:25.131Z,24.95
2019-04-01T17:42:57.237Z,24.02
2019-04-01T17:45:36.692Z,22.62
2019-04-01T17:48:09.074Z,19.92
2019-04-01T17:50:41.111Z,21.57
2019-04-01T17:53:14.141Z,20.90
2019-04-01T17:55:48.013Z,24.65
2019-04-01T17:58:19.996Z,22.50
2019-04-01T18:00:57.441Z,21.77
2019-04-01T18:03:29.546Z,27.58
2019-04-01T18:06:01.589Z,26.82
2019-04-01T18:08:34.241Z,30.92
2019-04-01T18:11:06.543Z,22.37
2019-04-01T18:13:38.672Z,25.17
2019-04-01T18:16:10.509Z,22.55
2019-04-01T18:18:42.592Z,27.98
2019-04-01T18:21:14.615Z,22.22
2019-04-01T18:23:48.624Z,19.65
2019-04-01T18:26:21.919Z,28.00
2019-04-01T18:28:53.927Z,26.45
2019-04-01T18:31:26.078Z,24.67
2019-04-01T18:33:59.268Z,26.45
2019-04-01T18:36:34.802Z,19.42
2019-04-01T18:39:09.674Z,22.35
2019-04-01T18:41:41.701Z,29.30
2019-04-01T18:44:13.764Z,23.35
2019-04-01T18:46:45.658Z,23.70
2019-04-01T18:49:17.671Z,23.60
2019-04-01T18:51:50.455Z,26.20
2019-04-01T18:54:22.623Z,24.25
2019-04-01T18:56:58.138Z,20.65
2019-04-01T18:59:30.396Z,22.20
2019-04-01T19:02:02.346Z,23.98
2019-04-01T19:04:34.404Z,22.17
2019-04-01T19:07:06.545Z,25.55
2019-04-01T19:09:38.629Z,27.25
2019-04-01T19:12:11.719Z,22.95
2019-04-01T19:14:43.716Z,30.08
2019-04-01T19:17:15.783Z,26.68
2019-04-01T19:19:48.775Z,26.10
2019-04-01T19:22:20.722Z,21.65
2019-04-01T19:24:53.958Z,25.52
2019-04-01T19:27:25.898Z,25.23
2019-04-01T19:29:58.092Z,21.02
2019-04-01T19:32:30.078Z,26.40
2019-04-01T19:35:02.202Z,26.37
2019-04-01T19:37:34.226Z,24.47
2019-04-01T19:40:08.013Z,23.60
2019-04-01T19:42:40.172Z,28.90
2019-04-01T19:45:14.324Z,27.05
2019-04-01T19:47:46.451Z,24.55
2019-04-01T19:50:19.210Z,25.02
2019-04-01T19:52:51.338Z,22.42
2019-04-01T19:55:23.543Z,22.02
2019-04-01T19:57:57.887Z,21.60
2019-04-01T20:00:30.776Z,25.00
2019-04-01T20:03:02.966Z,22.02
2019-04-01T20:05:35.092Z,26.05
2019-04-01T20:08:07.306Z,24.15
2019-04-01T20:10:39.619Z,24.27
2019-04-01T20:13:11.692Z,26.33
2019-04-01T20:15:43.523Z,27.98
2019-04-01T20:18:15.828Z,25.55
2019-04-01T20:20:48.017Z,25.80
2019-04-01T20:23:20.433Z,24.92
2019-04-01T20:25:52.422Z,22.77
2019-04-01T20:28:24.364Z,24.25
2019-04-01T20:30:56.689Z,23.18
2019-04-01T20:33:31.637Z,20.77
2019-04-01T20:36:03.501Z,28.27
2019-04-01T20:38:35.590Z,26.62
2019-04-01T20:41:07.548Z,26.48
2019-04-01T20:43:39.669Z,22.73
2019-04-01T20:46:11.754Z,23.12
2019-04-01T20:48:43.704Z,27.42
2019-04-01T20:51:15.651Z,25.57
2019-04-01T20:53:51.149Z,27.40
2019-04-01T20:56:21.891Z,25.70
2019-04-01T20:58:55.897Z,27.42
2019-04-01T21:01:27.955Z,32.75
2019-04-01T21:04:00.061Z,29.32
2019-04-01T21:06:32.437Z,41.23
2019-04-01T21:09:07.883Z,35.17
2019-04-01T21:11:40.060Z,34.20
2019-04-01T21:14:12.540Z,33.28
2019-04-01T21:16:44.509Z,38.60
2019-04-01T21:19:18.032Z,39.08
2019-04-01T21:21:50.145Z,30.82
2019-04-01T21:24:22.426Z,30.10
2019-04-01T21:26:55.091Z,30.85
2019-04-01T21:29:28.098Z,26.55
2019-04-01T21:32:01.558Z,28.85
2019-04-01T21:34:33.412Z,28.38
2019-04-01T21:37:06.257Z,29.42
2019-04-01T21:39:38.849Z,31.40
2019-04-01T21:42:11.045Z,31.10
2019-04-01T21:44:43.298Z,29.60
2019-04-01T21:47:15.650Z,25.80
2019-04-01T21:49:47.739Z,33.67
2019-04-01T21:52:19.737Z,25.92
2019-04-01T21:54:51.777Z,28.02
2019-04-01T21:57:23.953Z,27.65
2019-04-01T21:59:55.928Z,29.15
2019-04-01T22:02:35.720Z,27.55
2019-04-01T22:05:02.772Z,27.17
2019-04-01T22:07:34.848Z,30.60
2019-04-01T22:10:07.499Z,30.97
2019-04-01T22:12:39.400Z,30.82
2019-04-01T22:15:11.519Z,29.65
2019-04-01T22:17:43.473Z,33.40
2019-04-01T22:20:15.444Z,31.00
2019-04-01T22:22:47.489Z,37.17
2019-04-01T22:25:19.491Z,32.65
2019-04-01T22:27:52.384Z,31.80
2019-04-01T22:30:25.265Z,34.50
2019-04-01T22:32:57.151Z,32.67
2019-04-01T22:35:38.033Z,38.23
2019-04-01T22:38:03.508Z,36.23
2019-04-01T22:40:35.516Z,31.35
2019-04-01T22:43:07.540Z,30.43
2019-04-01T22:45:39.600Z,34.73
2019-04-01T22:48:11.608Z,31.60
2019-04-01T22:50:44.066Z,36.53
2019-04-01T22:53:16.126Z,36.85
2019-04-01T22:55:48.211Z,40.50
2019-04-01T22:58:22.003Z,35.15
2019-04-01T23:00:54.126Z,33.35
2019-04-01T23:03:26.547Z,33.83
2019-04-01T23:05:58.612Z,38.23
2019-04-01T23:08:31.172Z,38.98
2019-04-01T23:11:03.766Z,38.10
2019-04-01T23:13:35.788Z,33.28
2019-04-01T23:16:07.593Z,34.92
2019-04-01T23:18:39.684Z,33.67
2019-04-01T23:21:11.557Z,36.35
2019-04-01T23:23:43.732Z,36.23
2019-04-01T23:26:15.800Z,38.50
2019-04-01T23:28:47.823Z,38.02
2019-04-01T23:31:19.733Z,33.42
2019-04-01T23:33:51.611Z,32.65
2019-04-01T23:36:23.524Z,44.00
2019-04-01T23:38:56.460Z,35.10
2019-04-01T23:41:29.254Z,34.35
2019-04-01T23:44:03.915Z,38.90
2019-04-01T23:46:35.902Z,41.65
2019-04-01T23:49:09.078Z,36.08
2019-04-01T23:51:41.122Z,32.55
2019-04-01T23:54:13.433Z,34.53
2019-04-01T23:56:45.433Z,35.83
2019-04-01T23:59:19.196Z,39.73
